Terminal Aerodrome Forecast
Issued by NWS Houston/Galveston, TX

Home | Current Version | Previous Version | Text Only | Print | Product List | Glossary On
Versions: 1 2 3 4 5 6 7 8 9 10 11 12 13 14 15
000
FTUS44 KHGX 221120
TAFCLL
TAF
KCLL 221120Z 2212/2312 36011KT P6SM OVC018
     FM221800 31009KT P6SM VCSH SCT020 BKN035
     FM230000 21004KT P6SM SCT070
     FM230900 17006KT P6SM BKN015=

USA.gov is the U.S. government's official web portal to all federal, state and local government web resources and services.